sensor_id;sensor_type;location;lat;lon;timestamp;pressure;altitude;pressure_sealevel;temperature;humidity
43153;BME280;28756;49.064;9.290;2022-08-19T00:00:29;98535.00;;;19.01;77.04
43153;BME280;28756;49.064;9.290;2022-08-19T00:02:55;98532.22;;;19.03;76.60
43153;BME280;28756;49.064;9.290;2022-08-19T00:05:22;98522.88;;;19.08;76.92
43153;BME280;28756;49.064;9.290;2022-08-19T00:07:49;98530.16;;;19.15;76.08
43153;BME280;28756;49.064;9.290;2022-08-19T00:10:17;98527.69;;;19.13;76.26
43153;BME280;28756;49.064;9.290;2022-08-19T00:12:43;98521.56;;;19.13;76.71
43153;BME280;28756;49.064;9.290;2022-08-19T00:15:13;98527.69;;;19.13;76.03
43153;BME280;28756;49.064;9.290;2022-08-19T00:17:41;98527.69;;;19.13;76.34
43153;BME280;28756;49.064;9.290;2022-08-19T00:20:16;98527.69;;;19.13;76.42
43153;BME280;28756;49.064;9.290;2022-08-19T00:22:44;98531.44;;;19.10;76.50
43153;BME280;28756;49.064;9.290;2022-08-19T00:25:11;98530.91;;;19.07;76.93
43153;BME280;28756;49.064;9.290;2022-08-19T00:27:37;98538.97;;;19.05;77.08
43153;BME280;28756;49.064;9.290;2022-08-19T00:30:06;98541.09;;;19.02;76.84
43153;BME280;28756;49.064;9.290;2022-08-19T00:32:33;98532.13;;;18.94;76.73
43153;BME280;28756;49.064;9.290;2022-08-19T00:35:00;98530.03;;;18.98;76.74
43153;BME280;28756;49.064;9.290;2022-08-19T00:37:26;98527.56;;;18.97;76.90
43153;BME280;28756;49.064;9.290;2022-08-19T00:39:53;98531.31;;;18.94;77.31
43153;BME280;28756;49.064;9.290;2022-08-19T00:42:21;98530.63;;;18.92;77.02
43153;BME280;28756;49.064;9.290;2022-08-19T00:44:47;98522.81;;;18.90;77.29
43153;BME280;28756;49.064;9.290;2022-08-19T00:47:13;98506.38;;;18.88;77.66
43153;BME280;28756;49.064;9.290;2022-08-19T00:49:52;98509.13;;;18.87;77.56
43153;BME280;28756;49.064;9.290;2022-08-19T00:52:32;98501.91;;;18.89;76.95
43153;BME280;28756;49.064;9.290;2022-08-19T00:54:59;98490.78;;;18.95;76.64
43153;BME280;28756;49.064;9.290;2022-08-19T00:57:32;98496.22;;;18.93;76.46
43153;BME280;28756;49.064;9.290;2022-08-19T01:00:01;98504.81;;;18.96;76.71
43153;BME280;28756;49.064;9.290;2022-08-19T01:02:31;98513.69;;;18.94;77.43
43153;BME280;28756;49.064;9.290;2022-08-19T01:04:57;98520.09;;;18.92;77.17
43153;BME280;28756;49.064;9.290;2022-08-19T01:07:24;98519.13;;;18.93;77.10
43153;BME280;28756;49.064;9.290;2022-08-19T01:09:50;98522.56;;;18.93;76.82
43153;BME280;28756;49.064;9.290;2022-08-19T01:12:17;98523.69;;;18.91;77.36
43153;BME280;28756;49.064;9.290;2022-08-19T01:14:44;98531.75;;;18.89;77.42
43153;BME280;28756;49.064;9.290;2022-08-19T01:17:11;98533.69;;;18.87;77.24
43153;BME280;28756;49.064;9.290;2022-08-19T01:19:41;98530.22;;;18.87;77.51
43153;BME280;28756;49.064;9.290;2022-08-19T01:24:54;98521.78;;;18.83;77.32
43153;BME280;28756;49.064;9.290;2022-08-19T01:27:20;98522.09;;;18.80;77.58
43153;BME280;28756;49.064;9.290;2022-08-19T01:29:46;98527.50;;;18.78;78.55
43153;BME280;28756;49.064;9.290;2022-08-19T01:32:15;98528.34;;;18.79;78.18
43153;BME280;28756;49.064;9.290;2022-08-19T01:34:41;98519.75;;;18.77;78.69
43153;BME280;28756;49.064;9.290;2022-08-19T01:37:10;98528.09;;;18.72;78.31
43153;BME280;28756;49.064;9.290;2022-08-19T01:39:38;98530.91;;;18.71;78.04
43153;BME280;28756;49.064;9.290;2022-08-19T01:42:06;98527.44;;;18.70;78.65
43153;BME280;28756;49.064;9.290;2022-08-19T01:44:33;98528.53;;;18.68;78.75
43153;BME280;28756;49.064;9.290;2022-08-19T01:46:58;98529.69;;;18.65;79.90
43153;BME280;28756;49.064;9.290;2022-08-19T01:49:25;98538.72;;;18.62;79.84
43153;BME280;28756;49.064;9.290;2022-08-19T01:51:52;98533.88;;;18.58;80.11
43153;BME280;28756;49.064;9.290;2022-08-19T01:54:21;98526.28;;;18.55;80.70
43153;BME280;28756;49.064;9.290;2022-08-19T01:56:47;98529.50;;;18.49;80.38
43153;BME280;28756;49.064;9.290;2022-08-19T01:59:19;98526.50;;;18.43;80.88
43153;BME280;28756;49.064;9.290;2022-08-19T02:01:46;98529.13;;;18.43;81.06
43153;BME280;28756;49.064;9.290;2022-08-19T02:04:12;98514.47;;;18.41;80.79
43153;BME280;28756;49.064;9.290;2022-08-19T02:06:38;98519.84;;;18.39;81.37
43153;BME280;28756;49.064;9.290;2022-08-19T02:09:05;98520.16;;;18.36;80.98
43153;BME280;28756;49.064;9.290;2022-08-19T02:11:34;98528.22;;;18.35;81.31
43153;BME280;28756;49.064;9.290;2022-08-19T02:14:04;98526.56;;;18.34;81.86
43153;BME280;28756;49.064;9.290;2022-08-19T02:16:31;98536.25;;;18.33;81.51
43153;BME280;28756;49.064;9.290;2022-08-19T02:18:58;98529.31;;;18.32;81.89
43153;BME280;28756;49.064;9.290;2022-08-19T02:21:27;98536.25;;;18.33;81.87
43153;BME280;28756;49.064;9.290;2022-08-19T02:23:53;98531.91;;;18.42;80.88
43153;BME280;28756;49.064;9.290;2022-08-19T02:26:19;98527.47;;;18.42;80.77
43153;BME280;28756;49.064;9.290;2022-08-19T02:28:45;98531.38;;;18.38;81.30
43153;BME280;28756;49.064;9.290;2022-08-19T02:31:15;98527.22;;;18.36;81.62
43153;BME280;28756;49.064;9.290;2022-08-19T02:33:43;98533.50;;;18.35;81.21
43153;BME280;28756;49.064;9.290;2022-08-19T02:36:11;98532.91;;;18.31;81.44
43153;BME280;28756;49.064;9.290;2022-08-19T02:38:38;98535.72;;;18.29;81.58
43153;BME280;28756;49.064;9.290;2022-08-19T02:41:14;98539.19;;;18.30;81.44
43153;BME280;28756;49.064;9.290;2022-08-19T02:43:41;98535.13;;;18.36;81.61
43153;BME280;28756;49.064;9.290;2022-08-19T02:46:23;98536.66;;;18.38;81.20
43153;BME280;28756;49.064;9.290;2022-08-19T02:48:55;98534.59;;;18.32;82.52
43153;BME280;28756;49.064;9.290;2022-08-19T02:51:31;98532.38;;;18.27;82.60
43153;BME280;28756;49.064;9.290;2022-08-19T02:53:58;98538.50;;;18.28;81.67
43153;BME280;28756;49.064;9.290;2022-08-19T02:56:26;98535.03;;;18.27;81.74
43153;BME280;28756;49.064;9.290;2022-08-19T02:58:56;98529.91;;;18.26;82.28
43153;BME280;28756;49.064;9.290;2022-08-19T03:01:31;98529.22;;;18.24;82.48
43153;BME280;28756;49.064;9.290;2022-08-19T03:03:59;98538.50;;;18.28;81.90
43153;BME280;28756;49.064;9.290;2022-08-19T03:06:27;98524.59;;;18.36;81.26
43153;BME280;28756;49.064;9.290;2022-08-19T03:08:53;98520.75;;;18.30;81.81
43153;BME280;28756;49.064;9.290;2022-08-19T03:11:25;98526.16;;;18.28;81.60
43153;BME280;28756;49.064;9.290;2022-08-19T03:13:52;98527.13;;;18.27;81.81
43153;BME280;28756;49.064;9.290;2022-08-19T03:16:23;98523.84;;;18.25;82.00
43153;BME280;28756;49.064;9.290;2022-08-19T03:18:50;98526.47;;;18.25;81.70
43153;BME280;28756;49.064;9.290;2022-08-19T03:21:22;98519.53;;;18.24;81.87
43153;BME280;28756;49.064;9.290;2022-08-19T03:23:50;98530.88;;;18.25;81.71
43153;BME280;28756;49.064;9.290;2022-08-19T03:26:16;98536.03;;;18.26;81.68
43153;BME280;28756;49.064;9.290;2022-08-19T03:28:44;98530.44;;;18.29;81.80
43153;BME280;28756;49.064;9.290;2022-08-19T03:31:13;98534.06;;;18.28;82.02
43153;BME280;28756;49.064;9.290;2022-08-19T03:33:40;98539.31;;;18.28;82.09
43153;BME280;28756;49.064;9.290;2022-08-19T03:36:15;98538.88;;;18.33;82.13
43153;BME280;28756;49.064;9.290;2022-08-19T03:38:49;98540.38;;;18.36;82.00
43153;BME280;28756;49.064;9.290;2022-08-19T03:41:25;98541.50;;;18.33;82.13
43153;BME280;28756;49.064;9.290;2022-08-19T03:43:53;98546.94;;;18.31;82.37
43153;BME280;28756;49.064;9.290;2022-08-19T03:46:23;98539.31;;;18.28;82.16
43153;BME280;28756;49.064;9.290;2022-08-19T03:48:52;98546.41;;;18.28;82.54
43153;BME280;28756;49.064;9.290;2022-08-19T03:51:25;98540.59;;;18.24;82.45
43153;BME280;28756;49.064;9.290;2022-08-19T03:53:53;98542.09;;;18.27;82.59
43153;BME280;28756;49.064;9.290;2022-08-19T03:56:19;98537.97;;;18.24;82.60
43153;BME280;28756;49.064;9.290;2022-08-19T03:58:45;98536.47;;;18.22;82.83
43153;BME280;28756;49.064;9.290;2022-08-19T04:01:18;98541.84;;;18.20;82.67
43153;BME280;28756;49.064;9.290;2022-08-19T04:03:45;98542.00;;;18.19;82.76
43153;BME280;28756;49.064;9.290;2022-08-19T04:06:24;98537.56;;;18.19;82.78
43153;BME280;28756;49.064;9.290;2022-08-19T04:08:52;98537.56;;;18.19;82.98
43153;BME280;28756;49.064;9.290;2022-08-19T04:11:29;98541.19;;;18.18;82.91
43153;BME280;28756;49.064;9.290;2022-08-19T04:13:56;98542.97;;;18.18;83.16
43153;BME280;28756;49.064;9.290;2022-08-19T04:16:25;98542.28;;;18.15;83.11
43153;BME280;28756;49.064;9.290;2022-08-19T04:18:55;98539.00;;;18.13;83.10
43153;BME280;28756;49.064;9.290;2022-08-19T04:21:24;98551.31;;;18.13;83.48
43153;BME280;28756;49.064;9.290;2022-08-19T04:23:51;98540.13;;;18.11;83.26
43153;BME280;28756;49.064;9.290;2022-08-19T04:26:27;98546.03;;;18.13;83.40
43153;BME280;28756;49.064;9.290;2022-08-19T04:28:54;98546.19;;;18.11;83.38
43153;BME280;28756;49.064;9.290;2022-08-19T04:31:27;98544.53;;;18.10;83.47
43153;BME280;28756;49.064;9.290;2022-08-19T04:33:56;98540.94;;;18.11;83.46
43153;BME280;28756;49.064;9.290;2022-08-19T04:36:28;98540.25;;;18.09;83.46
43153;BME280;28756;49.064;9.290;2022-08-19T04:38:57;98536.09;;;18.07;83.54
43153;BME280;28756;49.064;9.290;2022-08-19T04:41:24;98532.66;;;18.06;83.75
43153;BME280;28756;49.064;9.290;2022-08-19T04:44:10;98523.75;;;18.07;83.46
43153;BME280;28756;49.064;9.290;2022-08-19T04:46:36;98530.84;;;18.07;84.04
43153;BME280;28756;49.064;9.290;2022-08-19T04:49:05;98535.41;;;18.05;83.83
43153;BME280;28756;49.064;9.290;2022-08-19T04:51:33;98539.00;;;18.04;84.15
43153;BME280;28756;49.064;9.290;2022-08-19T04:54:00;98547.75;;;18.04;84.09
43153;BME280;28756;49.064;9.290;2022-08-19T04:56:27;98547.75;;;18.04;84.15
43153;BME280;28756;49.064;9.290;2022-08-19T04:58:55;98551.19;;;18.05;84.15
43153;BME280;28756;49.064;9.290;2022-08-19T05:01:25;98546.63;;;18.07;83.69
43153;BME280;28756;49.064;9.290;2022-08-19T05:03:52;98546.47;;;18.08;83.83
43153;BME280;28756;49.064;9.290;2022-08-19T05:06:21;98557.16;;;18.07;83.94
43153;BME280;28756;49.064;9.290;2022-08-19T05:08:47;98558.66;;;18.09;84.00
43153;BME280;28756;49.064;9.290;2022-08-19T05:11:29;98555.06;;;18.10;83.89
43153;BME280;28756;49.064;9.290;2022-08-19T05:13:56;98557.41;;;18.13;83.77
43153;BME280;28756;49.064;9.290;2022-08-19T05:16:24;98559.34;;;18.11;83.87
43153;BME280;28756;49.064;9.290;2022-08-19T05:18:51;98567.94;;;18.13;84.25
43153;BME280;28756;49.064;9.290;2022-08-19T05:21:36;98566.97;;;18.14;83.65
43153;BME280;28756;49.064;9.290;2022-08-19T05:24:23;98567.78;;;18.15;83.79
43153;BME280;28756;49.064;9.290;2022-08-19T05:26:51;98578.84;;;18.19;84.11
43153;BME280;28756;49.064;9.290;2022-08-19T05:29:19;98581.31;;;18.20;83.53
43153;BME280;28756;49.064;9.290;2022-08-19T05:31:47;98586.16;;;18.25;83.97
43153;BME280;28756;49.064;9.290;2022-08-19T05:34:16;98593.75;;;18.28;83.87
43153;BME280;28756;49.064;9.290;2022-08-19T05:36:44;98589.31;;;18.28;83.75
43153;BME280;28756;49.064;9.290;2022-08-19T05:39:15;98602.19;;;18.31;83.51
43153;BME280;28756;49.064;9.290;2022-08-19T05:41:47;98614.22;;;18.34;83.84
43153;BME280;28756;49.064;9.290;2022-08-19T05:44:15;98616.59;;;18.37;83.85
43153;BME280;28756;49.064;9.290;2022-08-19T05:46:44;98611.31;;;18.37;83.52
43153;BME280;28756;49.064;9.290;2022-08-19T05:49:13;98626.16;;;18.38;83.18
43153;BME280;28756;49.064;9.290;2022-08-19T05:51:41;98622.66;;;18.38;82.93
43153;BME280;28756;49.064;9.290;2022-08-19T05:54:07;98624.34;;;18.39;83.57
43153;BME280;28756;49.064;9.290;2022-08-19T05:56:35;98629.44;;;18.40;83.51
43153;BME280;28756;49.064;9.290;2022-08-19T05:59:08;98632.06;;;18.40;83.43
43153;BME280;28756;49.064;9.290;2022-08-19T06:01:44;98637.50;;;18.39;83.29
43153;BME280;28756;49.064;9.290;2022-08-19T06:04:12;98635.56;;;18.41;83.06
43153;BME280;28756;49.064;9.290;2022-08-19T06:06:39;98639.69;;;18.43;83.42
43153;BME280;28756;49.064;9.290;2022-08-19T06:09:07;98644.81;;;18.45;83.10
43153;BME280;28756;49.064;9.290;2022-08-19T06:12:02;98646.63;;;18.44;83.19
43153;BME280;28756;49.064;9.290;2022-08-19T06:14:33;98642.16;;;18.45;82.96
43153;BME280;28756;49.064;9.290;2022-08-19T06:17:00;98648.28;;;18.45;82.53
43153;BME280;28756;49.064;9.290;2022-08-19T06:19:29;98643.69;;;18.47;82.84
43153;BME280;28756;49.064;9.290;2022-08-19T06:21:56;98643.41;;;18.51;82.66
43153;BME280;28756;49.064;9.290;2022-08-19T06:24:26;98644.22;;;18.51;82.27
43153;BME280;28756;49.064;9.290;2022-08-19T06:26:54;98639.50;;;18.55;82.64
43153;BME280;28756;49.064;9.290;2022-08-19T06:29:23;98634.47;;;18.61;83.03
43153;BME280;28756;49.064;9.290;2022-08-19T06:31:53;98645.38;;;18.67;82.42
43153;BME280;28756;49.064;9.290;2022-08-19T06:34:19;98646.25;;;18.67;81.88
43153;BME280;28756;49.064;9.290;2022-08-19T06:36:50;98639.69;;;18.71;81.42
43153;BME280;28756;49.064;9.290;2022-08-19T06:39:23;98633.97;;;18.76;81.37
43153;BME280;28756;49.064;9.290;2022-08-19T06:41:53;98632.41;;;18.83;80.98
43153;BME280;28756;49.064;9.290;2022-08-19T06:44:22;98633.63;;;18.89;80.68
43153;BME280;28756;49.064;9.290;2022-08-19T06:46:49;98640.69;;;18.98;80.76
43153;BME280;28756;49.064;9.290;2022-08-19T06:49:16;98642.19;;;19.01;80.62
43153;BME280;28756;49.064;9.290;2022-08-19T06:51:45;98650.63;;;19.04;80.00
43153;BME280;28756;49.064;9.290;2022-08-19T06:54:16;98645.59;;;19.11;80.09
43153;BME280;28756;49.064;9.290;2022-08-19T06:56:43;98645.00;;;19.17;79.49
43153;BME280;28756;49.064;9.290;2022-08-19T06:59:15;98644.91;;;19.09;79.38
43153;BME280;28756;49.064;9.290;2022-08-19T07:01:49;98644.47;;;19.14;79.55
43153;BME280;28756;49.064;9.290;2022-08-19T07:04:20;98639.50;;;19.29;79.42
43153;BME280;28756;49.064;9.290;2022-08-19T07:06:47;98633.56;;;19.27;79.11
43153;BME280;28756;49.064;9.290;2022-08-19T07:09:15;98632.88;;;19.24;78.78
43153;BME280;28756;49.064;9.290;2022-08-19T07:11:47;98633.91;;;19.32;78.56
43153;BME280;28756;49.064;9.290;2022-08-19T07:14:13;98632.72;;;19.44;77.99
43153;BME280;28756;49.064;9.290;2022-08-19T07:16:40;98629.28;;;19.70;78.06
43153;BME280;28756;49.064;9.290;2022-08-19T07:19:06;98636.16;;;19.63;76.82
43153;BME280;28756;49.064;9.290;2022-08-19T07:21:32;98636.47;;;19.60;77.25
43153;BME280;28756;49.064;9.290;2022-08-19T07:23:59;98637.88;;;19.72;76.85
43153;BME280;28756;49.064;9.290;2022-08-19T07:26:32;98641.44;;;19.63;77.03
43153;BME280;28756;49.064;9.290;2022-08-19T07:28:59;98647.75;;;19.70;77.18
43153;BME280;28756;49.064;9.290;2022-08-19T07:31:27;98639.69;;;19.71;76.61
43153;BME280;28756;49.064;9.290;2022-08-19T07:33:55;98642.41;;;19.62;76.69
43153;BME280;28756;49.064;9.290;2022-08-19T07:36:25;98652.81;;;19.63;77.03
43153;BME280;28756;49.064;9.290;2022-08-19T07:39:00;98650.38;;;19.70;76.91
43153;BME280;28756;49.064;9.290;2022-08-19T07:41:27;98647.25;;;19.84;76.89
43153;BME280;28756;49.064;9.290;2022-08-19T07:43:58;98644.88;;;19.81;76.41
43153;BME280;28756;49.064;9.290;2022-08-19T07:46:34;98647.25;;;19.84;76.65
43153;BME280;28756;49.064;9.290;2022-08-19T07:49:01;98653.94;;;19.79;76.27
43153;BME280;28756;49.064;9.290;2022-08-19T07:51:28;98660.13;;;19.87;76.54
43153;BME280;28756;49.064;9.290;2022-08-19T07:53:54;98654.22;;;19.76;76.68
43153;BME280;28756;49.064;9.290;2022-08-19T07:56:21;98657.38;;;19.79;76.76
43153;BME280;28756;49.064;9.290;2022-08-19T07:58:50;98655.97;;;19.85;76.33
43153;BME280;28756;49.064;9.290;2022-08-19T08:01:21;98650.00;;;19.83;76.67
43153;BME280;28756;49.064;9.290;2022-08-19T08:03:50;98649.00;;;19.84;76.65
43153;BME280;28756;49.064;9.290;2022-08-19T08:06:34;98655.53;;;19.90;76.33
43153;BME280;28756;49.064;9.290;2022-08-19T08:09:29;98655.22;;;19.93;76.57
43153;BME280;28756;49.064;9.290;2022-08-19T08:12:04;98657.38;;;19.97;76.18
43153;BME280;28756;49.064;9.290;2022-08-19T08:14:36;98651.34;;;20.05;76.54
43153;BME280;28756;49.064;9.290;2022-08-19T08:17:05;98648.97;;;20.20;75.78
43153;BME280;28756;49.064;9.290;2022-08-19T08:19:32;98640.72;;;20.23;76.15
43153;BME280;28756;49.064;9.290;2022-08-19T08:21:59;98643.03;;;20.26;75.53
43153;BME280;28756;49.064;9.290;2022-08-19T08:24:28;98650.53;;;20.39;75.31
43153;BME280;28756;49.064;9.290;2022-08-19T08:26:54;98662.84;;;20.30;75.14
43153;BME280;28756;49.064;9.290;2022-08-19T08:29:20;98659.75;;;20.35;75.19
43153;BME280;28756;49.064;9.290;2022-08-19T08:31:47;98659.97;;;20.42;75.29
43153;BME280;28756;49.064;9.290;2022-08-19T08:34:14;98661.63;;;20.43;75.22
43153;BME280;28756;49.064;9.290;2022-08-19T08:36:43;98667.91;;;20.50;74.95
43153;BME280;28756;49.064;9.290;2022-08-19T08:39:12;98667.19;;;20.40;75.23
43153;BME280;28756;49.064;9.290;2022-08-19T08:44:38;98671.44;;;20.32;75.30
43153;BME280;28756;49.064;9.290;2022-08-19T08:47:12;98662.63;;;20.50;75.30
43153;BME280;28756;49.064;9.290;2022-08-19T08:49:48;98665.16;;;20.60;74.98
43153;BME280;28756;49.064;9.290;2022-08-19T08:52:31;98663.31;;;20.87;74.34
43153;BME280;28756;49.064;9.290;2022-08-19T08:55:39;98654.91;;;21.08;73.71
43153;BME280;28756;49.064;9.290;2022-08-19T08:58:10;98653.28;;;21.07;72.88
43153;BME280;28756;49.064;9.290;2022-08-19T09:00:46;98651.72;;;20.79;74.17
43153;BME280;28756;49.064;9.290;2022-08-19T09:03:25;98650.41;;;20.83;73.71
43153;BME280;28756;49.064;9.290;2022-08-19T09:17:14;98635.28;;;21.27;72.82
43153;BME280;28756;49.064;9.290;2022-08-19T09:20:21;98638.97;;;21.42;71.98
43153;BME280;28756;49.064;9.290;2022-08-19T09:22:47;98638.94;;;21.51;71.97
43153;BME280;28756;49.064;9.290;2022-08-19T09:25:18;98634.34;;;21.61;71.41
43153;BME280;28756;49.064;9.290;2022-08-19T09:27:47;98642.28;;;21.69;71.63
43153;BME280;28756;49.064;9.290;2022-08-19T09:30:22;98654.53;;;21.70;71.07
43153;BME280;28756;49.064;9.290;2022-08-19T09:32:50;98653.00;;;21.51;71.77
43153;BME280;28756;49.064;9.290;2022-08-19T09:35:19;98654.31;;;21.30;71.95
43153;BME280;28756;49.064;9.290;2022-08-19T09:37:48;98656.09;;;21.13;72.80
43153;BME280;28756;49.064;9.290;2022-08-19T09:40:15;98661.38;;;21.13;72.99
43153;BME280;28756;49.064;9.290;2022-08-19T09:42:43;98654.75;;;21.01;73.49
43153;BME280;28756;49.064;9.290;2022-08-19T09:45:10;98657.94;;;21.13;73.21
43153;BME280;28756;49.064;9.290;2022-08-19T09:47:36;98663.19;;;21.05;73.41
43153;BME280;28756;49.064;9.290;2022-08-19T09:50:08;98659.38;;;21.07;73.33
43153;BME280;28756;49.064;9.290;2022-08-19T09:52:35;98665.47;;;20.99;73.51
43153;BME280;28756;49.064;9.290;2022-08-19T09:55:06;98662.50;;;20.94;73.81
43153;BME280;28756;49.064;9.290;2022-08-19T09:57:33;98667.00;;;21.02;73.78
43153;BME280;28756;49.064;9.290;2022-08-19T09:59:59;98659.88;;;21.11;73.62
43153;BME280;28756;49.064;9.290;2022-08-19T10:02:25;98662.53;;;21.11;73.04
43153;BME280;28756;49.064;9.290;2022-08-19T10:04:51;98667.34;;;21.16;73.07
43153;BME280;28756;49.064;9.290;2022-08-19T10:07:43;98666.34;;;21.17;73.30
43153;BME280;28756;49.064;9.290;2022-08-19T10:10:09;98667.16;;;21.17;72.92
43153;BME280;28756;49.064;9.290;2022-08-19T10:12:35;98671.66;;;21.25;73.64
43153;BME280;28756;49.064;9.290;2022-08-19T10:15:03;98664.72;;;21.24;72.98
43153;BME280;28756;49.064;9.290;2022-08-19T10:17:29;98659.44;;;21.32;73.17
43153;BME280;28756;49.064;9.290;2022-08-19T10:19:55;98665.91;;;21.54;72.50
43153;BME280;28756;49.064;9.290;2022-08-19T10:22:21;98657.00;;;21.80;71.90
43153;BME280;28756;49.064;9.290;2022-08-19T10:24:47;98648.84;;;21.98;71.33
43153;BME280;28756;49.064;9.290;2022-08-19T10:27:13;98641.38;;;22.18;70.20
43153;BME280;28756;49.064;9.290;2022-08-19T10:29:41;98648.16;;;22.29;68.32
43153;BME280;28756;49.064;9.290;2022-08-19T10:32:08;98628.47;;;22.23;67.30
43153;BME280;28756;49.064;9.290;2022-08-19T10:34:36;98636.03;;;22.43;68.15
43153;BME280;28756;49.064;9.290;2022-08-19T10:37:03;98632.06;;;22.79;66.52
43153;BME280;28756;49.064;9.290;2022-08-19T10:39:33;98637.84;;;22.82;65.87
43153;BME280;28756;49.064;9.290;2022-08-19T10:42:07;98635.00;;;23.15;66.46
43153;BME280;28756;49.064;9.290;2022-08-19T10:44:33;98633.19;;;23.16;61.90
43153;BME280;28756;49.064;9.290;2022-08-19T10:47:02;98638.19;;;23.11;62.19
43153;BME280;28756;49.064;9.290;2022-08-19T10:49:29;98629.03;;;23.13;62.53
43153;BME280;28756;49.064;9.290;2022-08-19T10:51:56;98626.50;;;22.97;61.90
43153;BME280;28756;49.064;9.290;2022-08-19T10:54:40;98623.06;;;22.88;63.14
43153;BME280;28756;49.064;9.290;2022-08-19T10:57:25;98627.50;;;22.64;62.18
43153;BME280;28756;49.064;9.290;2022-08-19T10:59:57;98633.00;;;22.63;63.36
43153;BME280;28756;49.064;9.290;2022-08-19T11:02:23;98634.03;;;22.45;62.77
43153;BME280;28756;49.064;9.290;2022-08-19T11:04:49;98630.38;;;22.54;64.00
43153;BME280;28756;49.064;9.290;2022-08-19T11:07:17;98637.72;;;22.76;63.74
43153;BME280;28756;49.064;9.290;2022-08-19T11:09:43;98632.75;;;22.73;62.66
43153;BME280;28756;49.064;9.290;2022-08-19T11:12:09;98630.94;;;22.73;63.05
43153;BME280;28756;49.064;9.290;2022-08-19T11:14:36;98620.66;;;22.78;62.60
43153;BME280;28756;49.064;9.290;2022-08-19T11:17:04;98617.78;;;22.88;61.95
43153;BME280;28756;49.064;9.290;2022-08-19T11:19:30;98619.78;;;22.86;62.55
43153;BME280;28756;49.064;9.290;2022-08-19T11:21:57;98619.09;;;22.92;63.35
43153;BME280;28756;49.064;9.290;2022-08-19T11:24:25;98618.53;;;22.97;63.12
43153;BME280;28756;49.064;9.290;2022-08-19T11:26:53;98612.44;;;22.96;61.19
43153;BME280;28756;49.064;9.290;2022-08-19T11:29:25;98620.63;;;23.10;62.07
43153;BME280;28756;49.064;9.290;2022-08-19T11:31:53;98610.25;;;23.00;60.32
43153;BME280;28756;49.064;9.290;2022-08-19T11:34:23;98606.47;;;23.26;61.30
43153;BME280;28756;49.064;9.290;2022-08-19T11:36:50;98605.44;;;23.50;59.83
43153;BME280;28756;49.064;9.290;2022-08-19T11:39:20;98610.09;;;23.48;59.56
43153;BME280;28756;49.064;9.290;2022-08-19T11:41:47;98601.09;;;23.72;60.21
43153;BME280;28756;49.064;9.290;2022-08-19T11:44:13;98605.81;;;23.62;58.28
43153;BME280;28756;49.064;9.290;2022-08-19T11:46:41;98610.31;;;23.61;57.80
43153;BME280;28756;49.064;9.290;2022-08-19T11:49:09;98607.81;;;23.45;57.86
43153;BME280;28756;49.064;9.290;2022-08-19T11:51:34;98605.41;;;23.35;58.06
43153;BME280;28756;49.064;9.290;2022-08-19T11:54:01;98613.50;;;23.33;57.87
43153;BME280;28756;49.064;9.290;2022-08-19T11:56:27;98613.38;;;23.35;57.86
43153;BME280;28756;49.064;9.290;2022-08-19T11:58:54;98615.06;;;23.28;57.68
43153;BME280;28756;49.064;9.290;2022-08-19T12:01:24;98616.97;;;23.11;58.13
43153;BME280;28756;49.064;9.290;2022-08-19T12:03:52;98623.63;;;23.07;58.85
43153;BME280;28756;49.064;9.290;2022-08-19T12:06:29;98620.63;;;23.10;58.97
43153;BME280;28756;49.064;9.290;2022-08-19T12:08:56;98612.78;;;23.16;58.78
43153;BME280;28756;49.064;9.290;2022-08-19T12:11:23;98618.81;;;23.33;58.00
43153;BME280;28756;49.064;9.290;2022-08-19T12:13:49;98617.63;;;23.36;57.39
43153;BME280;28756;49.064;9.290;2022-08-19T12:16:20;98615.63;;;23.38;57.75
43153;BME280;28756;49.064;9.290;2022-08-19T12:18:47;98602.50;;;23.45;57.41
43153;BME280;28756;49.064;9.290;2022-08-19T12:21:22;98605.72;;;23.55;57.88
43153;BME280;28756;49.064;9.290;2022-08-19T12:23:50;98604.69;;;23.56;57.52
43153;BME280;28756;49.064;9.290;2022-08-19T12:26:17;98606.13;;;23.67;57.14
43153;BME280;28756;49.064;9.290;2022-08-19T12:28:43;98603.41;;;23.75;57.43
43153;BME280;28756;49.064;9.290;2022-08-19T12:31:10;98592.78;;;23.75;55.96
43153;BME280;28756;49.064;9.290;2022-08-19T12:33:41;98597.06;;;23.61;56.09
43153;BME280;28756;49.064;9.290;2022-08-19T12:36:11;98601.91;;;23.58;56.59
43153;BME280;28756;49.064;9.290;2022-08-19T12:38:38;98599.41;;;23.56;56.06
43153;BME280;28756;49.064;9.290;2022-08-19T12:41:06;98593.94;;;23.58;56.81
43153;BME280;28756;49.064;9.290;2022-08-19T12:43:36;98596.03;;;23.62;57.00
43153;BME280;28756;49.064;9.290;2022-08-19T12:46:04;98600.34;;;23.63;56.82
43153;BME280;28756;49.064;9.290;2022-08-19T12:48:31;98600.75;;;23.75;56.53
43153;BME280;28756;49.064;9.290;2022-08-19T12:50:57;98602.47;;;23.83;56.11
43153;BME280;28756;49.064;9.290;2022-08-19T12:53:23;98600.69;;;23.99;56.59
43153;BME280;28756;49.064;9.290;2022-08-19T12:55:58;98595.56;;;24.12;57.04
43153;BME280;28756;49.064;9.290;2022-08-19T12:58:26;98601.06;;;24.10;55.40
43153;BME280;28756;49.064;9.290;2022-08-19T13:00:52;98602.72;;;24.11;55.81
43153;BME280;28756;49.064;9.290;2022-08-19T13:03:18;98602.34;;;24.15;56.40
43153;BME280;28756;49.064;9.290;2022-08-19T13:05:44;98603.16;;;24.00;56.10
43153;BME280;28756;49.064;9.290;2022-08-19T13:08:09;98600.56;;;23.92;57.29
43153;BME280;28756;49.064;9.290;2022-08-19T13:10:36;98610.88;;;23.72;56.47
43153;BME280;28756;49.064;9.290;2022-08-19T13:13:08;98605.47;;;23.65;56.29
43153;BME280;28756;49.064;9.290;2022-08-19T13:15:39;98600.97;;;23.65;56.55
43153;BME280;28756;49.064;9.290;2022-08-19T13:18:07;98602.56;;;23.75;56.86
43153;BME280;28756;49.064;9.290;2022-08-19T13:20:36;98600.94;;;23.89;56.31
43153;BME280;28756;49.064;9.290;2022-08-19T13:23:03;98606.44;;;23.87;56.16
43153;BME280;28756;49.064;9.290;2022-08-19T13:25:29;98605.25;;;23.90;54.85
43153;BME280;28756;49.064;9.290;2022-08-19T13:27:55;98602.06;;;24.09;55.61